createdAt,value
2023-01-11T00:00:08.025Z,79.60
2023-01-11T00:00:17.457Z,79.50
2023-01-11T00:00:36.231Z,79.50
2023-01-11T00:00:45.635Z,79.50
2023-01-11T00:00:55.034Z,79.50
2023-01-11T00:01:04.422Z,79.50
2023-01-11T00:01:13.839Z,79.50
2023-01-11T00:01:23.250Z,79.50
2023-01-11T00:01:32.659Z,79.60
2023-01-11T00:01:42.088Z,79.70
2023-01-11T00:01:51.737Z,79.60
2023-01-11T00:02:01.069Z,79.60
2023-01-11T00:02:10.568Z,79.70
2023-01-11T00:02:20.031Z,79.70
2023-01-11T00:02:29.367Z,79.80
2023-01-11T00:02:38.822Z,79.80
2023-01-11T00:02:48.128Z,79.80
2023-01-11T00:02:57.579Z,79.70
2023-01-11T00:03:16.455Z,79.80
2023-01-11T00:03:25.860Z,79.80
2023-01-11T00:03:35.332Z,79.90
2023-01-11T00:03:44.759Z,79.90
2023-01-11T00:03:54.181Z,80.00
2023-01-11T00:04:03.614Z,80.00
2023-01-11T00:04:13.079Z,80.00
2023-01-11T00:04:22.496Z,80.10
2023-01-11T00:04:31.934Z,80.10
2023-01-11T00:04:41.337Z,80.10
2023-01-11T00:04:50.892Z,80.20
2023-01-11T00:05:00.255Z,80.20
2023-01-11T00:05:09.615Z,80.30
2023-01-11T00:05:18.916Z,80.30
2023-01-11T00:05:28.519Z,80.20
2023-01-11T00:05:37.744Z,80.20
2023-01-11T00:05:56.541Z,80.30
2023-01-11T00:06:05.919Z,80.30
2023-01-11T00:06:15.341Z,80.40
2023-01-11T00:06:24.775Z,80.40
2023-01-11T00:06:34.192Z,80.50
2023-01-11T00:06:43.589Z,80.50
2023-01-11T00:06:53.016Z,80.50
2023-01-11T00:07:02.339Z,80.50
2023-01-11T00:07:11.797Z,80.50
2023-01-11T00:07:21.264Z,80.40
2023-01-11T00:07:30.617Z,80.50
2023-01-11T00:07:40.018Z,80.50
2023-01-11T00:07:49.434Z,80.40
2023-01-11T00:07:58.884Z,80.50
2023-01-11T00:08:08.336Z,80.40
2023-01-11T00:08:17.761Z,80.40
2023-01-11T00:08:36.582Z,80.30
2023-01-11T00:08:45.971Z,80.30
2023-01-11T00:08:55.401Z,80.30
2023-01-11T00:09:04.866Z,80.30
2023-01-11T00:09:14.357Z,80.30
2023-01-11T00:09:23.753Z,80.20
2023-01-11T00:09:33.156Z,80.20
2023-01-11T00:09:42.576Z,80.20
2023-01-11T00:09:51.969Z,80.10
2023-01-11T00:10:01.413Z,80.10
2023-01-11T00:10:10.859Z,80.10
2023-01-11T00:10:20.408Z,80.10
2023-01-11T00:10:29.815Z,80.10
2023-01-11T00:10:39.232Z,80.10
2023-01-11T00:10:48.637Z,80.20
2023-01-11T00:10:58.470Z,80.20
2023-01-11T00:11:07.881Z,80.20
2023-01-11T00:11:26.674Z,80.10
2023-01-11T00:11:36.091Z,80.00
2023-01-11T00:11:45.479Z,80.00
2023-01-11T00:11:54.888Z,80.00
2023-01-11T00:12:04.389Z,80.00
2023-01-11T00:12:13.846Z,80.00
2023-01-11T00:12:23.239Z,80.00
2023-01-11T00:12:32.799Z,80.00
2023-01-11T00:12:42.191Z,80.00
2023-01-11T00:12:51.647Z,80.00
2023-01-11T00:13:01.074Z,80.10
2023-01-11T00:13:10.463Z,80.10
2023-01-11T00:13:19.859Z,80.10
2023-01-11T00:13:29.256Z,80.20
2023-01-11T00:13:38.667Z,80.20
2023-01-11T00:13:48.139Z,80.20
2023-01-11T00:13:57.542Z,80.20
2023-01-11T00:14:16.337Z,80.30
2023-01-11T00:14:25.749Z,80.30
2023-01-11T00:14:35.157Z,80.30
2023-01-11T00:14:44.560Z,80.40
2023-01-11T00:14:53.964Z,80.40
2023-01-11T00:15:03.484Z,80.40
2023-01-11T00:15:12.892Z,80.40
2023-01-11T00:15:22.279Z,80.30
2023-01-11T00:15:31.680Z,80.30
2023-01-11T00:15:41.139Z,80.30
2023-01-11T00:15:50.564Z,80.30
2023-01-11T00:15:59.907Z,80.30
2023-01-11T00:16:09.357Z,80.30
2023-01-11T00:16:18.747Z,80.40
2023-01-11T00:16:28.184Z,80.30
2023-01-11T00:16:37.526Z,80.40
2023-01-11T00:16:56.326Z,80.40
2023-01-11T00:17:05.713Z,80.40
2023-01-11T00:17:15.154Z,80.30
2023-01-11T00:17:24.571Z,80.40
2023-01-11T00:17:33.965Z,80.40
2023-01-11T00:17:43.373Z,80.30
2023-01-11T00:17:52.780Z,80.40
2023-01-11T00:18:02.176Z,80.40
2023-01-11T00:18:11.581Z,80.40
2023-01-11T00:18:20.968Z,80.40
2023-01-11T00:18:30.364Z,80.50
2023-01-11T00:18:39.793Z,80.50
2023-01-11T00:18:49.219Z,80.50
2023-01-11T00:18:58.624Z,80.60
2023-01-11T00:19:08.041Z,80.60
2023-01-11T00:19:17.499Z,80.60
2023-01-11T00:19:36.332Z,80.70
2023-01-11T00:19:45.752Z,80.70
2023-01-11T00:19:55.172Z,80.80
2023-01-11T00:20:04.614Z,80.70
2023-01-11T00:20:14.055Z,80.60
2023-01-11T00:20:23.452Z,80.60
2023-01-11T00:20:32.862Z,80.60
2023-01-11T00:20:42.279Z,80.50
2023-01-11T00:20:51.696Z,80.50
2023-01-11T00:21:01.109Z,80.50
2023-01-11T00:21:10.505Z,80.50
2023-01-11T00:21:19.944Z,80.50
2023-01-11T00:21:29.354Z,80.50
2023-01-11T00:21:38.796Z,80.40
2023-01-11T00:21:48.207Z,80.40
2023-01-11T00:21:57.624Z,80.30
2023-01-11T00:22:16.592Z,80.20
2023-01-11T00:22:26.002Z,80.20
2023-01-11T00:22:35.413Z,80.10
2023-01-11T00:22:44.832Z,80.10
2023-01-11T00:22:54.238Z,80.00
2023-01-11T00:23:03.642Z,80.10
2023-01-11T00:23:13.064Z,80.00
2023-01-11T00:23:22.472Z,80.00
2023-01-11T00:23:31.868Z,79.90
2023-01-11T00:23:41.442Z,80.00
2023-01-11T00:23:50.832Z,80.00
2023-01-11T00:24:00.251Z,80.00
2023-01-11T00:24:09.640Z,80.10
2023-01-11T00:24:19.071Z,80.20
2023-01-11T00:24:28.523Z,80.20
2023-01-11T00:24:37.914Z,80.20
2023-01-11T00:24:56.725Z,80.50
2023-01-11T00:25:06.138Z,80.50
2023-01-11T00:25:15.687Z,80.70
2023-01-11T00:25:25.326Z,80.90
2023-01-11T00:25:34.735Z,81.00
2023-01-11T00:25:44.120Z,81.10
2023-01-11T00:25:53.522Z,81.30
2023-01-11T00:26:02.909Z,81.50
2023-01-11T00:26:12.308Z,81.60
2023-01-11T00:26:21.710Z,81.80
2023-01-11T00:26:31.135Z,81.90
2023-01-11T00:26:40.509Z,82.10
2023-01-11T00:26:49.924Z,82.20
2023-01-11T00:26:59.327Z,82.40
2023-01-11T00:27:08.795Z,82.50
2023-01-11T00:27:18.449Z,82.70
2023-01-11T00:27:27.857Z,82.70
2023-01-11T00:27:46.672Z,82.80
2023-01-11T00:27:56.089Z,82.90
2023-01-11T00:28:05.543Z,82.90
2023-01-11T00:28:14.937Z,83.00
2023-01-11T00:28:24.340Z,83.00
2023-01-11T00:28:33.787Z,83.10
2023-01-11T00:28:43.188Z,83.10
2023-01-11T00:28:52.579Z,83.10
2023-01-11T00:29:01.998Z,83.10
2023-01-11T00:29:11.432Z,83.10
2023-01-11T00:29:20.857Z,83.00
2023-01-11T00:29:30.253Z,83.00
2023-01-11T00:29:39.667Z,83.00
2023-01-11T00:29:49.065Z,83.10
2023-01-11T00:29:58.502Z,83.10
2023-01-11T00:30:07.906Z,83.10
2023-01-11T00:30:17.326Z,83.20
2023-01-11T00:30:36.166Z,83.20
2023-01-11T00:30:45.563Z,83.20
2023-01-11T00:30:55.000Z,83.10
2023-01-11T00:31:04.461Z,83.20
2023-01-11T00:31:13.834Z,83.20
2023-01-11T00:31:23.276Z,83.20
2023-01-11T00:31:32.664Z,83.40
2023-01-11T00:31:42.178Z,83.30
2023-01-11T00:31:51.511Z,83.40
2023-01-11T00:32:00.928Z,83.50
2023-01-11T00:32:10.339Z,83.40
2023-01-11T00:32:19.745Z,83.30
2023-01-11T00:32:29.158Z,83.20
2023-01-11T00:32:38.586Z,83.20
2023-01-11T00:32:48.001Z,83.20
2023-01-11T00:32:57.418Z,83.10
2023-01-11T00:33:16.231Z,82.90
2023-01-11T00:33:25.642Z,82.80
2023-01-11T00:33:35.108Z,82.80
2023-01-11T00:33:44.728Z,82.70
2023-01-11T00:33:54.154Z,82.60
2023-01-11T00:34:03.581Z,82.60
2023-01-11T00:34:13.001Z,82.50
2023-01-11T00:34:22.424Z,82.50
2023-01-11T00:34:31.818Z,82.50
2023-01-11T00:34:41.216Z,82.50
2023-01-11T00:34:50.628Z,82.50
2023-01-11T00:35:00.053Z,82.50
2023-01-11T00:35:09.495Z,82.50
2023-01-11T00:35:18.912Z,82.50
2023-01-11T00:35:28.338Z,82.40
2023-01-11T00:35:37.741Z,82.40
2023-01-11T00:35:56.583Z,82.10
2023-01-11T00:36:06.003Z,82.20
2023-01-11T00:36:15.397Z,82.00
2023-01-11T00:36:24.821Z,81.90
2023-01-11T00:36:34.251Z,82.00
2023-01-11T00:36:43.661Z,82.00
2023-01-11T00:36:53.080Z,81.80
2023-01-11T00:37:02.503Z,81.80
2023-01-11T00:37:11.931Z,81.60
2023-01-11T00:37:21.344Z,81.50
2023-01-11T00:37:30.761Z,81.50
2023-01-11T00:37:40.155Z,81.50
2023-01-11T00:37:49.585Z,81.50
2023-01-11T00:37:58.973Z,81.40
2023-01-11T00:38:08.399Z,81.30
2023-01-11T00:38:17.773Z,81.30
2023-01-11T00:38:36.579Z,81.20
2023-01-11T00:38:46.005Z,81.20
2023-01-11T00:38:55.513Z,81.30
2023-01-11T00:39:04.836Z,81.20
2023-01-11T00:39:14.207Z,81.10
2023-01-11T00:39:23.614Z,81.10
2023-01-11T00:39:33.048Z,81.00
2023-01-11T00:39:42.433Z,81.00
2023-01-11T00:39:51.851Z,81.00
2023-01-11T00:40:01.280Z,81.00
2023-01-11T00:40:10.685Z,81.00
2023-01-11T00:40:20.160Z,80.90
2023-01-11T00:40:29.569Z,80.90
2023-01-11T00:40:38.979Z,80.90
2023-01-11T00:40:48.426Z,80.90
2023-01-11T00:40:57.855Z,80.90
2023-01-11T00:41:16.666Z,80.90
2023-01-11T00:41:26.112Z,80.90
2023-01-11T00:41:35.520Z,80.90
2023-01-11T00:41:44.941Z,80.80
2023-01-11T00:41:54.334Z,80.80
2023-01-11T00:42:03.746Z,80.80
2023-01-11T00:42:17.219Z,80.70
2023-01-11T00:42:26.637Z,80.70
2023-01-11T00:42:36.045Z,80.80
2023-01-11T00:42:45.476Z,80.80
2023-01-11T00:42:54.883Z,80.70
2023-01-11T00:43:04.288Z,80.60
2023-01-11T00:43:13.696Z,80.50
2023-01-11T00:43:23.095Z,80.60
2023-01-11T00:43:32.509Z,80.50
2023-01-11T00:43:41.935Z,80.50
2023-01-11T00:43:51.374Z,80.50
2023-01-11T00:44:00.802Z,80.50
2023-01-11T00:44:10.195Z,80.50
2023-01-11T00:44:19.609Z,80.50
2023-01-11T00:44:29.039Z,80.50
2023-01-11T00:44:38.438Z,80.40
2023-01-11T00:44:47.854Z,80.50
2023-01-11T00:45:06.668Z,80.50
2023-01-11T00:45:16.089Z,80.50
2023-01-11T00:45:25.461Z,80.50
2023-01-11T00:45:34.874Z,80.50
2023-01-11T00:45:44.302Z,80.60
2023-01-11T00:45:53.784Z,80.50
2023-01-11T00:46:03.236Z,80.60
2023-01-11T00:46:12.575Z,80.60
2023-01-11T00:46:21.971Z,80.60
2023-01-11T00:46:31.433Z,80.50
2023-01-11T00:46:40.796Z,80.40
2023-01-11T00:46:50.248Z,80.40
2023-01-11T00:46:59.689Z,80.50
2023-01-11T00:47:09.116Z,80.40
2023-01-11T00:47:18.520Z,80.30
2023-01-11T00:47:27.927Z,80.30
2023-01-11T00:47:37.352Z,80.20
2023-01-11T00:47:56.179Z,80.00
2023-01-11T00:48:05.566Z,80.00
2023-01-11T00:48:15.040Z,80.00
2023-01-11T00:48:24.449Z,79.90
2023-01-11T00:48:33.878Z,79.80
2023-01-11T00:48:43.290Z,79.80
2023-01-11T00:48:52.717Z,79.80
2023-01-11T00:49:02.137Z,79.80
2023-01-11T00:49:11.579Z,79.90
2023-01-11T00:49:20.977Z,79.90
2023-01-11T00:49:30.395Z,80.00
2023-01-11T00:49:39.788Z,80.00
2023-01-11T00:49:49.181Z,80.10
2023-01-11T00:49:58.581Z,80.10
2023-01-11T00:50:07.978Z,80.20
2023-01-11T00:50:17.368Z,80.20
2023-01-11T00:50:36.201Z,80.20
2023-01-11T00:50:45.575Z,80.20
2023-01-11T00:50:54.986Z,80.20
2023-01-11T00:51:04.378Z,80.20
2023-01-11T00:51:13.769Z,80.20
2023-01-11T00:51:23.156Z,80.20
2023-01-11T00:51:32.557Z,80.20
2023-01-11T00:51:41.936Z,80.20
2023-01-11T00:51:51.362Z,80.30
2023-01-11T00:52:00.821Z,80.20
2023-01-11T00:52:10.281Z,80.30
2023-01-11T00:52:19.728Z,80.30
2023-01-11T00:52:29.133Z,80.20
2023-01-11T00:52:38.565Z,80.10
2023-01-11T00:52:47.993Z,80.10
2023-01-11T00:52:57.423Z,80.20
2023-01-11T00:53:16.259Z,80.10
2023-01-11T00:53:25.669Z,80.10
2023-01-11T00:53:35.084Z,80.00
2023-01-11T00:53:44.570Z,80.00
2023-01-11T00:53:53.970Z,80.00
2023-01-11T00:54:03.386Z,80.00
2023-01-11T00:54:12.789Z,80.00
2023-01-11T00:54:22.217Z,80.00
2023-01-11T00:54:31.629Z,80.00
2023-01-11T00:54:41.041Z,80.10
2023-01-11T00:54:50.438Z,80.20
2023-01-11T00:54:59.831Z,80.20
2023-01-11T00:55:09.243Z,80.20
2023-01-11T00:55:18.655Z,80.30
2023-01-11T00:55:28.070Z,80.30
2023-01-11T00:55:37.441Z,80.30
2023-01-11T00:55:56.284Z,80.40
2023-01-11T00:56:05.694Z,80.30
2023-01-11T00:56:15.092Z,80.20
2023-01-11T00:56:24.506Z,80.30
2023-01-11T00:56:33.904Z,80.40
2023-01-11T00:56:43.284Z,80.20
2023-01-11T00:56:52.739Z,80.40
2023-01-11T00:57:02.121Z,80.40
2023-01-11T00:57:11.546Z,80.50
2023-01-11T00:57:20.941Z,80.50
2023-01-11T00:57:30.353Z,80.50
2023-01-11T00:57:39.772Z,80.60
2023-01-11T00:57:49.179Z,80.60
2023-01-11T00:57:58.612Z,80.70
2023-01-11T00:58:08.012Z,80.80
2023-01-11T00:58:17.428Z,80.80
2023-01-11T00:58:36.262Z,80.80
2023-01-11T00:58:45.655Z,80.90
2023-01-11T00:58:55.078Z,81.00
2023-01-11T00:59:04.500Z,81.00
2023-01-11T00:59:13.941Z,81.00
2023-01-11T00:59:23.351Z,80.90
2023-01-11T00:59:32.743Z,80.90
2023-01-11T00:59:42.135Z,80.90
2023-01-11T00:59:51.555Z,81.00
2023-01-11T01:00:00.960Z,80.90
2023-01-11T01:00:10.338Z,80.90
2023-01-11T01:00:19.733Z,80.90
2023-01-11T01:00:29.211Z,80.90
2023-01-11T01:00:38.563Z,81.00
2023-01-11T01:00:47.979Z,81.00
2023-01-11T01:00:57.387Z,81.00
2023-01-11T01:01:16.201Z,80.90
2023-01-11T01:01:25.687Z,80.90
2023-01-11T01:01:35.186Z,80.90
2023-01-11T01:01:44.618Z,80.90
2023-01-11T01:01:53.864Z,81.00
2023-01-11T01:02:03.260Z,81.00
2023-01-11T01:02:12.695Z,81.00
2023-01-11T01:02:22.118Z,81.00
2023-01-11T01:02:31.568Z,81.00
2023-01-11T01:02:40.925Z,81.00
2023-01-11T01:02:50.400Z,81.00
2023-01-11T01:02:59.724Z,81.10
2023-01-11T01:03:09.095Z,81.10
2023-01-11T01:03:18.513Z,81.20
2023-01-11T01:03:27.938Z,81.20
2023-01-11T01:03:37.331Z,81.30
2023-01-11T01:03:56.156Z,81.30
2023-01-11T01:04:05.542Z,81.30
2023-01-11T01:04:14.968Z,81.40
2023-01-11T01:04:24.403Z,81.50
2023-01-11T01:04:33.829Z,81.50
2023-01-11T01:04:43.216Z,81.50
2023-01-11T01:04:52.624Z,81.60
2023-01-11T01:05:02.037Z,81.70
2023-01-11T01:05:11.489Z,81.80
2023-01-11T01:05:20.919Z,81.80
2023-01-11T01:05:30.319Z,81.80
2023-01-11T01:05:39.708Z,81.80
2023-01-11T01:05:49.109Z,81.90
2023-01-11T01:05:58.512Z,82.00
2023-01-11T01:06:07.944Z,82.00
2023-01-11T01:06:17.343Z,82.00
2023-01-11T01:06:36.179Z,82.10
2023-01-11T01:06:45.666Z,82.10
2023-01-11T01:06:55.120Z,82.20
2023-01-11T01:07:04.382Z,82.20
2023-01-11T01:07:13.779Z,82.20
2023-01-11T01:07:23.206Z,82.30
2023-01-11T01:07:32.622Z,82.40
2023-01-11T01:07:42.036Z,82.40
2023-01-11T01:07:51.455Z,82.40
2023-01-11T01:08:00.832Z,82.40
2023-01-11T01:08:10.246Z,82.40
2023-01-11T01:08:19.610Z,82.40
2023-01-11T01:08:29.041Z,82.50
2023-01-11T01:08:38.465Z,82.50
2023-01-11T01:08:47.841Z,82.50
2023-01-11T01:09:06.672Z,82.40
2023-01-11T01:09:16.096Z,82.30
2023-01-11T01:09:25.488Z,82.40
2023-01-11T01:09:34.904Z,82.40
2023-01-11T01:09:44.295Z,82.50
2023-01-11T01:09:53.682Z,82.50
2023-01-11T01:10:03.085Z,82.20
2023-01-11T01:10:12.488Z,82.50
2023-01-11T01:10:21.897Z,82.50
2023-01-11T01:10:31.370Z,82.50
2023-01-11T01:10:40.755Z,82.50
2023-01-11T01:10:50.161Z,82.60
2023-01-11T01:10:59.569Z,82.60
2023-01-11T01:11:08.976Z,82.60
2023-01-11T01:11:18.375Z,82.60
2023-01-11T01:11:27.797Z,82.60
2023-01-11T01:11:46.601Z,82.50
2023-01-11T01:11:56.009Z,82.60
2023-01-11T01:12:05.422Z,82.60
2023-01-11T01:12:14.824Z,82.70
2023-01-11T01:12:24.282Z,82.70
2023-01-11T01:12:33.688Z,82.70
2023-01-11T01:12:43.091Z,82.60
2023-01-11T01:12:52.519Z,82.60
2023-01-11T01:13:01.907Z,82.60
2023-01-11T01:13:11.352Z,82.60
2023-01-11T01:13:20.753Z,82.50
2023-01-11T01:13:30.172Z,82.50
2023-01-11T01:13:39.580Z,82.40
2023-01-11T01:13:48.977Z,82.20
2023-01-11T01:13:58.378Z,82.20
2023-01-11T01:14:07.780Z,82.20
2023-01-11T01:14:26.686Z,82.10
2023-01-11T01:14:35.995Z,82.10
2023-01-11T01:14:45.419Z,82.10
2023-01-11T01:14:54.796Z,82.00
2023-01-11T01:15:04.186Z,82.10
2023-01-11T01:15:13.595Z,82.10
2023-01-11T01:15:22.987Z,82.20
2023-01-11T01:15:32.390Z,82.20
2023-01-11T01:15:41.829Z,82.30
2023-01-11T01:15:51.243Z,82.30
2023-01-11T01:16:00.658Z,82.10
2023-01-11T01:16:10.111Z,82.20
2023-01-11T01:16:19.483Z,82.20
2023-01-11T01:16:28.829Z,82.10
2023-01-11T01:16:38.250Z,82.10
2023-01-11T01:16:47.667Z,82.10
2023-01-11T01:17:06.440Z,82.10
2023-01-11T01:17:15.842Z,82.00
2023-01-11T01:17:25.309Z,82.00
2023-01-11T01:17:34.764Z,82.00
2023-01-11T01:17:44.160Z,82.10
2023-01-11T01:17:53.566Z,82.10
2023-01-11T01:18:02.988Z,82.10
2023-01-11T01:18:12.406Z,82.00
2023-01-11T01:18:21.840Z,81.90
2023-01-11T01:18:31.235Z,82.00
2023-01-11T01:18:40.650Z,82.10
2023-01-11T01:18:50.038Z,82.10
2023-01-11T01:18:59.490Z,82.00
2023-01-11T01:19:08.897Z,82.00
2023-01-11T01:19:18.441Z,82.10
2023-01-11T01:19:27.933Z,82.10
2023-01-11T01:19:46.670Z,82.00
2023-01-11T01:19:56.079Z,82.00
2023-01-11T01:20:05.510Z,82.00
2023-01-11T01:20:14.902Z,82.00
2023-01-11T01:20:24.297Z,82.00
2023-01-11T01:20:33.718Z,81.90
2023-01-11T01:20:43.153Z,82.00
2023-01-11T01:20:52.531Z,82.00
2023-01-11T01:21:01.964Z,82.00
2023-01-11T01:21:11.404Z,81.90
2023-01-11T01:21:20.824Z,81.80
2023-01-11T01:21:30.279Z,81.60
2023-01-11T01:21:39.745Z,81.60
2023-01-11T01:21:49.164Z,81.50
2023-01-11T01:21:58.568Z,81.40
2023-01-11T01:22:07.960Z,81.40
2023-01-11T01:22:17.367Z,81.20
2023-01-11T01:22:36.210Z,81.10
2023-01-11T01:22:45.631Z,81.20
2023-01-11T01:22:55.042Z,81.30
2023-01-11T01:23:04.447Z,81.30
2023-01-11T01:23:13.874Z,81.40
2023-01-11T01:23:23.275Z,81.40
2023-01-11T01:23:32.665Z,81.50
2023-01-11T01:23:42.070Z,81.40
2023-01-11T01:23:51.460Z,81.40
2023-01-11T01:24:00.907Z,81.60
2023-01-11T01:24:10.263Z,81.40
2023-01-11T01:24:19.662Z,81.40
2023-01-11T01:24:29.087Z,81.40
2023-01-11T01:24:38.508Z,81.60
2023-01-11T01:24:47.985Z,81.60
2023-01-11T01:25:06.712Z,81.70
2023-01-11T01:25:16.134Z,81.70
2023-01-11T01:25:25.551Z,81.60
2023-01-11T01:25:34.984Z,81.60
2023-01-11T01:25:44.394Z,81.60
2023-01-11T01:25:53.794Z,81.60
2023-01-11T01:26:03.189Z,81.60
2023-01-11T01:26:12.568Z,81.60
2023-01-11T01:26:21.988Z,81.60
2023-01-11T01:26:31.431Z,81.60
2023-01-11T01:26:40.825Z,81.60
2023-01-11T01:26:50.247Z,81.80
2023-01-11T01:26:59.685Z,81.70
2023-01-11T01:27:09.078Z,81.90
2023-01-11T01:27:18.474Z,81.90
2023-01-11T01:27:27.890Z,81.90
2023-01-11T01:27:46.675Z,81.90
2023-01-11T01:27:56.101Z,81.90
2023-01-11T01:28:05.513Z,81.90
2023-01-11T01:28:14.927Z,81.90
2023-01-11T01:28:24.357Z,81.80
2023-01-11T01:28:33.764Z,81.80
2023-01-11T01:28:43.198Z,81.80
2023-01-11T01:28:52.623Z,81.80
2023-01-11T01:29:02.010Z,81.80
2023-01-11T01:29:11.533Z,81.80
2023-01-11T01:29:20.951Z,81.80
2023-01-11T01:29:30.343Z,81.90
2023-01-11T01:29:39.737Z,81.90
2023-01-11T01:29:49.209Z,82.00
2023-01-11T01:29:58.619Z,82.00
2023-01-11T01:30:08.060Z,81.90
2023-01-11T01:30:17.426Z,82.00
2023-01-11T01:30:36.210Z,82.00
2023-01-11T01:30:45.603Z,82.10
2023-01-11T01:30:55.021Z,82.10
2023-01-11T01:31:04.466Z,82.00
2023-01-11T01:31:13.841Z,82.00
2023-01-11T01:31:23.325Z,81.90
2023-01-11T01:31:32.773Z,81.80
2023-01-11T01:31:42.070Z,81.80
2023-01-11T01:31:51.473Z,81.80
2023-01-11T01:32:00.849Z,81.80
2023-01-11T01:32:10.268Z,81.80
2023-01-11T01:32:19.663Z,81.80
2023-01-11T01:32:29.097Z,81.70
2023-01-11T01:32:38.548Z,81.70
2023-01-11T01:32:47.934Z,81.80
2023-01-11T01:32:57.331Z,81.70
2023-01-11T01:33:16.140Z,81.60
2023-01-11T01:33:25.535Z,81.70
2023-01-11T01:33:34.955Z,81.30
2023-01-11T01:33:44.325Z,81.60
2023-01-11T01:33:53.754Z,81.50
2023-01-11T01:34:03.173Z,81.50
2023-01-11T01:34:12.585Z,81.40
2023-01-11T01:34:21.971Z,81.40
2023-01-11T01:34:31.431Z,81.30
2023-01-11T01:34:40.846Z,81.40
2023-01-11T01:34:50.261Z,81.30
2023-01-11T01:34:59.672Z,81.30
2023-01-11T01:35:09.083Z,81.20
2023-01-11T01:35:18.484Z,81.10
2023-01-11T01:35:27.891Z,81.20
2023-01-11T01:35:37.339Z,81.20
2023-01-11T01:35:56.163Z,81.30
2023-01-11T01:36:05.568Z,81.20
2023-01-11T01:36:14.957Z,81.20
2023-01-11T01:36:24.351Z,81.10
2023-01-11T01:36:33.767Z,81.00
2023-01-11T01:36:43.182Z,81.00
2023-01-11T01:36:52.624Z,81.00
2023-01-11T01:37:02.018Z,80.80
2023-01-11T01:37:11.411Z,80.90
2023-01-11T01:37:20.907Z,80.90
2023-01-11T01:37:34.195Z,80.90
2023-01-11T01:37:43.596Z,81.00
2023-01-11T01:37:53.010Z,81.00
2023-01-11T01:38:02.407Z,81.00
2023-01-11T01:38:11.797Z,81.20
2023-01-11T01:38:21.185Z,81.10
2023-01-11T01:38:30.590Z,81.10
2023-01-11T01:38:39.971Z,81.20
2023-01-11T01:38:49.367Z,81.10
2023-01-11T01:38:58.797Z,81.20
2023-01-11T01:39:08.193Z,81.20
2023-01-11T01:39:17.600Z,81.20
2023-01-11T01:39:36.406Z,81.00
2023-01-11T01:39:45.801Z,81.00
2023-01-11T01:39:55.225Z,80.90
2023-01-11T01:40:04.630Z,80.90
2023-01-11T01:40:14.030Z,80.80
2023-01-11T01:40:23.447Z,80.80
2023-01-11T01:40:32.857Z,80.80
2023-01-11T01:40:42.300Z,80.60
2023-01-11T01:40:51.674Z,80.60
2023-01-11T01:41:01.131Z,80.50
2023-01-11T01:41:10.547Z,80.60
2023-01-11T01:41:19.961Z,80.70
2023-01-11T01:41:29.399Z,80.70
2023-01-11T01:41:38.810Z,80.70
2023-01-11T01:41:48.223Z,80.70
2023-01-11T01:41:57.641Z,80.70
2023-01-11T01:42:16.404Z,80.70
2023-01-11T01:42:25.826Z,80.70
2023-01-11T01:42:35.235Z,80.70
2023-01-11T01:42:44.702Z,80.60
2023-01-11T01:42:54.105Z,80.70
2023-01-11T01:43:03.509Z,80.80
2023-01-11T01:43:12.912Z,80.80
2023-01-11T01:43:22.315Z,80.80
2023-01-11T01:43:31.719Z,80.90
2023-01-11T01:43:41.129Z,80.90
2023-01-11T01:43:50.621Z,80.90
2023-01-11T01:43:59.987Z,80.90
2023-01-11T01:44:09.376Z,80.90
2023-01-11T01:44:18.851Z,80.90
2023-01-11T01:44:28.261Z,80.90
2023-01-11T01:44:37.667Z,80.90
2023-01-11T01:44:56.527Z,80.80
2023-01-11T01:45:05.926Z,80.80
2023-01-11T01:45:15.357Z,80.70
2023-01-11T01:45:24.809Z,80.70
2023-01-11T01:45:34.165Z,80.70
2023-01-11T01:45:43.583Z,80.70
2023-01-11T01:45:52.977Z,80.60
2023-01-11T01:46:02.431Z,80.50
2023-01-11T01:46:11.832Z,80.60
2023-01-11T01:46:21.337Z,80.60
2023-01-11T01:46:30.712Z,80.60
2023-01-11T01:46:40.080Z,80.60
2023-01-11T01:46:49.462Z,80.60
2023-01-11T01:46:58.929Z,80.60
2023-01-11T01:47:08.309Z,80.70
2023-01-11T01:47:17.705Z,80.70
2023-01-11T01:47:36.524Z,80.80
2023-01-11T01:47:45.912Z,80.80
2023-01-11T01:47:55.304Z,80.90
2023-01-11T01:48:04.694Z,81.00
2023-01-11T01:48:14.095Z,81.00
2023-01-11T01:48:23.517Z,81.20
2023-01-11T01:48:32.930Z,81.00
2023-01-11T01:48:42.341Z,80.90
2023-01-11T01:48:51.768Z,80.90
2023-01-11T01:49:01.161Z,80.80
2023-01-11T01:49:10.538Z,80.90
2023-01-11T01:49:19.936Z,80.90
2023-01-11T01:49:29.346Z,80.90
2023-01-11T01:49:38.731Z,80.90
2023-01-11T01:49:48.159Z,80.90
2023-01-11T01:49:57.551Z,80.90
2023-01-11T01:50:16.400Z,80.90
2023-01-11T01:50:25.809Z,80.90
2023-01-11T01:50:35.229Z,80.90
2023-01-11T01:50:44.643Z,80.90
2023-01-11T01:50:54.046Z,80.90
2023-01-11T01:51:03.495Z,81.00
2023-01-11T01:51:12.873Z,80.90
2023-01-11T01:51:22.351Z,80.90
2023-01-11T01:51:31.750Z,80.90
2023-01-11T01:51:41.146Z,80.90
2023-01-11T01:51:50.575Z,81.00
2023-01-11T01:51:59.947Z,81.00
2023-01-11T01:52:09.352Z,81.00
2023-01-11T01:52:18.759Z,81.00
2023-01-11T01:52:28.177Z,80.90
2023-01-11T01:52:37.587Z,81.00
2023-01-11T01:52:56.368Z,81.00
2023-01-11T01:53:05.764Z,81.00
2023-01-11T01:53:15.189Z,81.00
2023-01-11T01:53:24.622Z,81.10
2023-01-11T01:53:34.050Z,81.10
2023-01-11T01:53:43.577Z,81.20
2023-01-11T01:53:52.968Z,81.20
2023-01-11T01:54:02.380Z,81.20
2023-01-11T01:54:11.791Z,81.10
2023-01-11T01:54:21.178Z,81.10
2023-01-11T01:54:30.582Z,81.30
2023-01-11T01:54:40.071Z,81.20
2023-01-11T01:54:49.505Z,81.30
2023-01-11T01:54:58.945Z,81.40
2023-01-11T01:55:08.353Z,81.50
2023-01-11T01:55:17.756Z,81.50
2023-01-11T01:55:36.552Z,81.50
2023-01-11T01:55:45.983Z,81.60
2023-01-11T01:55:55.352Z,81.70
2023-01-11T01:56:04.752Z,81.70
2023-01-11T01:56:14.191Z,81.80
2023-01-11T01:56:23.603Z,81.80
2023-01-11T01:56:33.020Z,81.90
2023-01-11T01:56:42.423Z,81.90
2023-01-11T01:56:51.808Z,82.00
2023-01-11T01:57:01.229Z,82.10
2023-01-11T01:57:10.632Z,82.10
2023-01-11T01:57:20.025Z,82.40
2023-01-11T01:57:29.471Z,82.50
2023-01-11T01:57:38.876Z,82.50
2023-01-11T01:57:48.296Z,82.50
2023-01-11T01:57:57.702Z,82.40
2023-01-11T01:58:16.519Z,82.40
2023-01-11T01:58:25.918Z,82.40
2023-01-11T01:58:35.367Z,82.30
2023-01-11T01:58:44.801Z,82.40
2023-01-11T01:58:54.209Z,82.40
2023-01-11T01:59:03.605Z,82.40
2023-01-11T01:59:13.024Z,82.40
2023-01-11T01:59:22.462Z,82.40
2023-01-11T01:59:31.866Z,82.40
2023-01-11T01:59:41.296Z,82.40
2023-01-11T01:59:50.716Z,82.20
2023-01-11T02:00:00.124Z,82.30
2023-01-11T02:00:09.550Z,82.20
2023-01-11T02:00:18.970Z,82.10
2023-01-11T02:00:28.416Z,82.10
2023-01-11T02:00:37.803Z,82.00
2023-01-11T02:00:56.623Z,82.00
2023-01-11T02:01:06.065Z,82.00
2023-01-11T02:01:15.563Z,82.10
2023-01-11T02:01:24.914Z,82.10
2023-01-11T02:01:34.341Z,82.20
2023-01-11T02:01:43.792Z,82.30
2023-01-11T02:01:53.160Z,82.30
2023-01-11T02:02:02.642Z,82.40
2023-01-11T02:02:11.948Z,82.40
2023-01-11T02:02:21.447Z,82.40
2023-01-11T02:02:30.883Z,82.40
2023-01-11T02:02:40.212Z,82.50
2023-01-11T02:02:49.707Z,82.50
2023-01-11T02:02:59.175Z,82.50
2023-01-11T02:03:08.531Z,82.60
2023-01-11T02:03:17.932Z,82.60
2023-01-11T02:03:36.702Z,82.80
2023-01-11T02:03:46.112Z,82.80
2023-01-11T02:03:55.569Z,82.70
2023-01-11T02:04:04.968Z,82.80
2023-01-11T02:04:14.374Z,82.90
2023-01-11T02:04:23.791Z,82.90
2023-01-11T02:04:33.206Z,82.90
2023-01-11T02:04:42.646Z,82.90
2023-01-11T02:04:52.057Z,82.90
2023-01-11T02:05:01.473Z,82.90
2023-01-11T02:05:10.889Z,83.00
2023-01-11T02:05:20.276Z,83.00
2023-01-11T02:05:29.654Z,82.90
2023-01-11T02:05:39.078Z,82.90
2023-01-11T02:05:48.473Z,82.90
2023-01-11T02:05:57.870Z,83.00
2023-01-11T02:06:16.727Z,82.90
2023-01-11T02:06:26.188Z,83.00
2023-01-11T02:06:35.581Z,82.90
2023-01-11T02:06:45.001Z,82.90
2023-01-11T02:06:54.399Z,82.90
2023-01-11T02:07:03.736Z,82.90
2023-01-11T02:07:13.132Z,82.90
2023-01-11T02:07:22.604Z,82.90
2023-01-11T02:07:31.961Z,82.90
2023-01-11T02:07:41.400Z,83.00
2023-01-11T02:07:50.809Z,83.00
2023-01-11T02:08:00.214Z,82.90
2023-01-11T02:08:09.606Z,83.00
2023-01-11T02:08:19.008Z,83.10
2023-01-11T02:08:28.419Z,83.10
2023-01-11T02:08:37.911Z,83.20
2023-01-11T02:08:47.329Z,83.30